Time;durP1;ratioP1;P1;durP2;ratioP2;P2;SDS_P1;SDS_P2;PMS_P1;PMS_P2;Temp;Humidity;BMP_temperature;BMP_pressure;BME280_temperature;BME280_humidity;BME280_pressure;Samples;Min_cycle;Max_cycle;Signal;HPM_P1;HPM_P2
2021/09/12 00:00:43;;;;;;;;;;;;;;;16.97;89.66;101812.91;5054476;28;19908;-36
2021/09/12 00:03:08;;;;;;;;;;;;;;;16.95;89.23;101806.88;5054249;28;19909;-36
2021/09/12 00:05:34;;;;;;;;;;;;;;;16.96;89.17;101810.44;5054231;28;20267;-36
2021/09/12 00:07:59;;;;;;;;;;;;;;;16.94;89.11;101804.41;5054306;28;20422;-36
2021/09/12 00:10:24;;;;;;;;;;;;;;;16.93;89.26;101814.53;5054740;28;19958;-36
2021/09/12 00:12:50;;;;;;;;;;;;;;;16.91;88.98;101816.66;5054967;28;19932;-36
2021/09/12 00:15:15;;;;;;;;;;;;;;;16.88;89.09;101808.13;5054123;28;19909;-36
2021/09/12 00:17:40;;;;;;;;;;;;;;;16.86;88.84;101802.09;5053916;28;19909;-36
2021/09/12 00:20:06;;;;;;;;;;;;;;;16.84;88.87;101807.81;5053847;28;20349;-36
2021/09/12 00:22:31;;;;;;;;;;;;;;;16.82;88.76;101807.22;5054251;28;19909;-36
2021/09/12 00:24:57;;;;;;;;;;;;;;;16.82;89.08;101801.75;5053622;28;20357;-36
2021/09/12 00:27:22;;;;;;;;;;;;;;;16.80;88.60;101797.63;5054514;28;19915;-36
2021/09/12 00:29:47;;;;;;;;;;;;;;;16.79;88.80;101798.69;5053683;28;19908;-36
2021/09/12 00:32:12;;;;;;;;;;;;;;;16.78;88.83;101799.78;5053911;28;20332;-36
2021/09/12 00:34:38;;;;;;;;;;;;;;;16.76;88.45;101802.75;5052474;28;19908;-36
2021/09/12 00:37:03;;;;;;;;;;;;;;;16.72;88.54;101802.44;5055151;28;19912;-36
2021/09/12 00:39:29;;;;;;;;;;;;;;;16.70;88.22;101801.81;5054091;28;19909;-36
2021/09/12 00:41:54;;;;;;;;;;;;;;;16.66;87.62;101802.56;5053679;28;19915;-36
2021/09/12 00:44:22;;;;;;;;;;;;;;;16.60;87.56;101798.94;5053505;28;19913;-36
2021/09/12 00:46:47;;;;;;;;;;;;;;;16.57;87.62;101793.97;5053473;28;20291;-36
2021/09/12 00:49:13;;;;;;;;;;;;;;;16.51;87.08;101799.59;5052967;28;19925;-36
2021/09/12 00:51:39;;;;;;;;;;;;;;;16.44;86.97;101800.56;5054060;28;19940;-36
2021/09/12 00:54:05;;;;;;;;;;;;;;;16.39;86.76;101795.00;5053506;28;19999;-36
2021/09/12 00:56:32;;;;;;;;;;;;;;;16.35;86.23;101790.31;5053576;28;19909;-36
2021/09/12 00:58:59;;;;;;;;;;;;;;;16.27;85.96;101782.53;5053525;28;19916;-36
2021/09/12 01:01:25;;;;;;;;;;;;;;;16.19;85.53;101787.28;5054340;28;19909;-36
2021/09/12 01:03:52;;;;;;;;;;;;;;;16.16;85.61;101779.63;5053396;28;19909;-36
2021/09/12 01:06:17;;;;;;;;;;;;;;;16.12;85.93;101775.72;5053437;28;19931;-36
2021/09/12 01:08:42;;;;;;;;;;;;;;;16.08;85.79;101781.91;5054115;28;19908;-36
2021/09/12 01:11:07;;;;;;;;;;;;;;;16.04;85.50;101780.75;5053582;28;19909;-36
2021/09/12 01:13:36;;;;;;;;;;;;;;;16.01;85.84;101773.88;5053581;28;19938;-36
2021/09/12 01:16:08;;;;;;;;;;;;;;;16.00;85.88;101774.13;5054204;28;20326;-36
2021/09/12 01:18:33;;;;;;;;;;;;;;;15.98;86.19;101774.38;5053946;28;19908;-36
2021/09/12 01:20:58;;;;;;;;;;;;;;;15.95;86.07;101780.28;5053938;28;19913;-36
2021/09/12 01:23:24;;;;;;;;;;;;;;;15.90;86.61;101788.38;5053603;28;19916;-36
2021/09/12 01:25:54;;;;;;;;;;;;;;;15.86;86.29;101781.75;5051916;28;20214;-36
2021/09/12 01:28:19;;;;;;;;;;;;;;;15.84;86.13;101784.75;5053371;28;19954;-36
2021/09/12 01:30:44;;;;;;;;;;;;;;;15.81;85.31;101784.38;5053506;28;19909;-36
2021/09/12 01:33:09;;;;;;;;;;;;;;;15.78;85.38;101785.72;5053227;28;19909;-36
2021/09/12 01:35:35;;;;;;;;;;;;;;;15.77;85.32;101791.41;5053453;28;19909;-36
2021/09/12 01:38:00;;;;;;;;;;;;;;;15.75;85.94;101786.19;5053503;28;19908;-36
2021/09/12 01:40:25;;;;;;;;;;;;;;;15.73;86.06;101782.91;5053449;28;20303;-36
2021/09/12 01:42:50;;;;;;;;;;;;;;;15.68;85.85;101783.63;5053514;28;20268;-36
2021/09/12 01:45:15;;;;;;;;;;;;;;;15.65;86.12;101781.34;5053440;28;19952;-36
2021/09/12 01:47:45;;;;;;;;;;;;;;;15.62;85.80;101778.28;5053334;28;19916;-36
2021/09/12 01:50:11;;;;;;;;;;;;;;;15.59;85.90;101776.03;5053310;28;19909;-36
2021/09/12 01:52:36;;;;;;;;;;;;;;;15.53;85.62;101779.72;5053579;28;19955;-36
2021/09/12 01:55:01;;;;;;;;;;;;;;;15.48;85.53;101777.72;5052966;28;19916;-36
2021/09/12 01:57:27;;;;;;;;;;;;;;;15.41;85.98;101775.13;5053307;28;19932;-36
2021/09/12 01:59:52;;;;;;;;;;;;;;;15.32;85.48;101768.38;5054350;28;19946;-36
2021/09/12 02:02:18;;;;;;;;;;;;;;;15.26;86.25;101774.78;5057120;28;20321;-36
2021/09/12 02:04:43;;;;;;;;;;;;;;;15.19;86.06;101769.47;5056932;28;20062;-36
2021/09/12 02:07:08;;;;;;;;;;;;;;;15.14;85.74;101769.38;5056292;28;19999;-36
2021/09/12 02:09:33;;;;;;;;;;;;;;;15.09;86.43;101771.97;5056213;28;19908;-36
2021/09/12 02:11:59;;;;;;;;;;;;;;;15.04;86.02;101766.44;5056254;28;19909;-36
2021/09/12 02:14:24;;;;;;;;;;;;;;;15.00;86.17;101765.25;5056482;28;19909;-36
2021/09/12 02:16:49;;;;;;;;;;;;;;;14.96;86.59;101777.66;5056221;28;20309;-36
2021/09/12 02:19:14;;;;;;;;;;;;;;;14.93;86.20;101772.69;5056080;28;19909;-36
2021/09/12 02:21:39;;;;;;;;;;;;;;;14.90;86.83;101778.63;5056108;28;19909;-36
2021/09/12 02:24:05;;;;;;;;;;;;;;;14.84;86.90;101780.41;5056256;28;20081;-36
2021/09/12 02:26:30;;;;;;;;;;;;;;;14.81;86.63;101775.41;5056968;28;19908;-36
2021/09/12 02:28:55;;;;;;;;;;;;;;;14.78;86.44;101775.06;5056172;28;20337;-36
2021/09/12 02:31:20;;;;;;;;;;;;;;;14.74;86.99;101776.59;5056649;28;19908;-36
2021/09/12 02:33:46;;;;;;;;;;;;;;;14.71;86.70;101782.53;5055801;28;20373;-36
2021/09/12 02:36:11;;;;;;;;;;;;;;;14.66;87.01;101784.06;5056362;28;20324;-36
2021/09/12 02:38:36;;;;;;;;;;;;;;;14.64;87.11;101786.19;5056221;28;20344;-36
2021/09/12 02:41:01;;;;;;;;;;;;;;;14.66;87.02;101789.50;5055725;28;19920;-36
2021/09/12 02:43:29;;;;;;;;;;;;;;;14.67;86.94;101780.25;5055681;28;19916;-36
2021/09/12 02:45:54;;;;;;;;;;;;;;;14.66;87.00;101786.78;5056847;28;19912;-36
2021/09/12 02:48:19;;;;;;;;;;;;;;;14.66;87.13;101784.06;5055523;28;19919;-36
2021/09/12 02:50:44;;;;;;;;;;;;;;;14.68;86.75;101783.81;5055614;28;19915;-36
2021/09/12 02:53:10;;;;;;;;;;;;;;;14.66;86.64;101778.63;5056079;28;20011;-36
2021/09/12 02:55:35;;;;;;;;;;;;;;;14.67;86.78;101784.88;5055693;28;19923;-36
2021/09/12 02:58:00;;;;;;;;;;;;;;;14.65;87.00;101779.69;5055670;28;19908;-36
2021/09/12 03:00:25;;;;;;;;;;;;;;;14.64;86.50;101785.34;5055546;28;19919;-36
2021/09/12 03:02:50;;;;;;;;;;;;;;;14.59;86.97;101779.78;5055383;28;20250;-36
2021/09/12 03:05:16;;;;;;;;;;;;;;;14.54;86.62;101779.66;5055278;28;20419;-36
2021/09/12 03:07:41;;;;;;;;;;;;;;;14.53;86.87;101789.72;5056004;28;20007;-36
2021/09/12 03:10:06;;;;;;;;;;;;;;;14.51;86.76;101786.41;5055200;28;19931;-36
2021/09/12 03:12:32;;;;;;;;;;;;;;;14.48;86.97;101778.69;5054471;28;20387;-36
2021/09/12 03:14:57;;;;;;;;;;;;;;;14.49;86.75;101785.78;5055110;28;19991;-36
2021/09/12 03:17:22;;;;;;;;;;;;;;;14.45;87.08;101779.16;5055724;28;19908;-36
2021/09/12 03:19:47;;;;;;;;;;;;;;;14.45;86.67;101784.59;5055185;28;20349;-36
2021/09/12 03:22:13;;;;;;;;;;;;;;;14.45;86.80;101789.22;5055431;28;20353;-36
2021/09/12 03:24:38;;;;;;;;;;;;;;;14.39;86.67;101788.22;5055056;28;19908;-36
2021/09/12 03:27:03;;;;;;;;;;;;;;;14.37;86.95;101793.91;5055531;28;19915;-36
2021/09/12 03:29:29;;;;;;;;;;;;;;;14.35;86.64;101784.34;5055036;28;19908;-36
2021/09/12 03:31:54;;;;;;;;;;;;;;;14.33;86.92;101781.00;5055775;28;19909;-36
2021/09/12 03:34:19;;;;;;;;;;;;;;;14.31;86.85;101777.69;5054852;28;19956;-36
2021/09/12 03:36:44;;;;;;;;;;;;;;;14.28;87.03;101775.44;5054953;28;19909;-36
2021/09/12 03:39:09;;;;;;;;;;;;;;;14.24;86.73;101777.78;5054808;28;19908;-36
2021/09/12 03:41:35;;;;;;;;;;;;;;;14.23;86.69;101778.03;5055635;28;19954;-36
2021/09/12 03:44:00;;;;;;;;;;;;;;;14.16;86.61;101778.97;5054767;28;20348;-36
2021/09/12 03:46:25;;;;;;;;;;;;;;;14.14;86.92;101772.91;5055628;28;19916;-36
2021/09/12 03:48:50;;;;;;;;;;;;;;;14.14;87.13;101775.63;5055175;28;19915;-36
2021/09/12 03:51:16;;;;;;;;;;;;;;;14.12;86.86;101785.09;5054716;28;19920;-36
2021/09/12 03:53:41;;;;;;;;;;;;;;;14.10;86.76;101779.03;5054664;28;19909;-36
2021/09/12 03:56:06;;;;;;;;;;;;;;;14.12;87.10;101779.66;5054835;28;19915;-36
2021/09/12 03:58:31;;;;;;;;;;;;;;;14.11;86.77;101778.84;5054567;28;19999;-36
2021/09/12 04:00:57;;;;;;;;;;;;;;;14.09;86.89;101775.50;5054764;28;19909;-36
2021/09/12 04:03:22;;;;;;;;;;;;;;;14.10;87.13;101781.75;5054389;28;19908;-36
2021/09/12 04:05:47;;;;;;;;;;;;;;;14.06;86.73;101784.13;5054081;28;20380;-36
2021/09/12 04:08:12;;;;;;;;;;;;;;;14.07;87.21;101791.22;5054376;28;20345;-36
2021/09/12 04:10:38;;;;;;;;;;;;;;;14.04;87.01;101785.41;5054035;28;19908;-36
2021/09/12 04:13:03;;;;;;;;;;;;;;;14.00;86.72;101785.03;5054166;28;20007;-36
2021/09/12 04:15:28;;;;;;;;;;;;;;;13.97;86.58;101784.69;5054670;28;19916;-36
2021/09/12 04:17:53;;;;;;;;;;;;;;;13.91;86.78;101781.84;5054162;28;20003;-36
2021/09/12 04:20:18;;;;;;;;;;;;;;;13.89;87.20;101778.50;5053771;28;19908;-36
2021/09/12 04:22:44;;;;;;;;;;;;;;;13.86;86.99;101787.13;5054202;28;19916;-36
2021/09/12 04:25:09;;;;;;;;;;;;;;;13.82;86.95;101785.94;5053799;28;19916;-36
2021/09/12 04:27:34;;;;;;;;;;;;;;;13.80;87.24;101773.63;5054048;28;19908;-36
2021/09/12 04:29:59;;;;;;;;;;;;;;;13.80;86.96;101782.59;5054552;28;19909;-36
2021/09/12 04:32:25;;;;;;;;;;;;;;;13.75;87.06;101781.63;5053992;28;19908;-36
2021/09/12 04:34:50;;;;;;;;;;;;;;;13.70;87.37;101787.75;5054461;28;20238;-36
2021/09/12 04:37:15;;;;;;;;;;;;;;;13.68;87.31;101789.06;5054250;28;20022;-36
2021/09/12 04:39:40;;;;;;;;;;;;;;;13.66;87.14;101794.69;5053865;28;19916;-36
2021/09/12 04:42:06;;;;;;;;;;;;;;;13.62;87.03;101794.34;5054071;28;19916;-36
2021/09/12 04:44:31;;;;;;;;;;;;;;;13.60;87.03;101801.06;5054050;28;19951;-36
2021/09/12 04:46:56;;;;;;;;;;;;;;;13.58;87.20;101786.88;5054112;28;20315;-36
2021/09/12 04:49:21;;;;;;;;;;;;;;;13.54;87.31;101791.94;5053366;28;19916;-36
2021/09/12 04:51:46;;;;;;;;;;;;;;;13.52;87.26;101796.78;5053935;28;20237;-36
2021/09/12 04:54:12;;;;;;;;;;;;;;;13.47;87.37;101799.34;5053374;28;19912;-36
2021/09/12 04:56:37;;;;;;;;;;;;;;;13.44;87.33;101801.66;5054353;28;19999;-36
2021/09/12 04:59:02;;;;;;;;;;;;;;;13.40;87.71;101804.00;5054127;28;19916;-36
2021/09/12 05:01:27;;;;;;;;;;;;;;;13.41;87.26;101805.66;5053649;28;19930;-36
2021/09/12 05:03:54;;;;;;;;;;;;;;;13.39;87.13;101810.50;5053224;28;20257;-36
2021/09/12 05:06:19;;;;;;;;;;;;;;;13.37;87.35;101805.31;5054489;28;19916;-36
2021/09/12 05:08:45;;;;;;;;;;;;;;;13.36;87.31;101813.66;5053606;28;19908;-36
2021/09/12 05:11:10;;;;;;;;;;;;;;;13.36;87.23;101805.50;5053737;28;19908;-36
2021/09/12 05:13:36;;;;;;;;;;;;;;;13.36;87.71;101803.63;5053371;28;19978;-36
2021/09/12 05:16:01;;;;;;;;;;;;;;;13.39;87.70;101805.06;5053698;28;19917;-36
2021/09/12 05:18:26;;;;;;;;;;;;;;;13.38;87.67;101809.69;5053283;28;19912;-36
2021/09/12 05:20:51;;;;;;;;;;;;;;;13.35;87.25;101812.00;5054090;28;19956;-36
2021/09/12 05:23:16;;;;;;;;;;;;;;;13.32;87.14;101821.44;5053467;28;20249;-36
2021/09/12 05:25:42;;;;;;;;;;;;;;;13.31;87.30;101825.19;5053184;28;20350;-36
2021/09/12 05:28:07;;;;;;;;;;;;;;;13.31;87.49;101819.75;5053791;28;20045;-36
2021/09/12 05:30:33;;;;;;;;;;;;;;;13.32;87.59;101820.59;5053735;28;19951;-36
2021/09/12 05:32:58;;;;;;;;;;;;;;;13.32;87.34;101824.16;5053223;28;19909;-36
2021/09/12 05:35:23;;;;;;;;;;;;;;;13.32;87.32;101821.44;5055757;28;19908;-36
2021/09/12 05:37:49;;;;;;;;;;;;;;;13.35;87.41;101825.59;5057715;28;19932;-36
2021/09/12 05:40:15;;;;;;;;;;;;;;;13.38;87.46;101825.16;5057548;28;19908;-36
2021/09/12 05:42:40;;;;;;;;;;;;;;;13.40;87.35;101812.16;5057545;28;19909;-36
2021/09/12 05:45:06;;;;;;;;;;;;;;;13.45;87.25;101816.91;5057010;28;20410;-37
2021/09/12 05:47:31;;;;;;;;;;;;;;;13.52;87.54;101817.69;5056640;28;19909;-36
2021/09/12 05:49:57;;;;;;;;;;;;;;;13.55;87.52;101820.75;5057029;28;19909;-36
2021/09/12 05:52:22;;;;;;;;;;;;;;;13.60;87.11;101820.06;5057308;28;19909;-36
2021/09/12 05:54:47;;;;;;;;;;;;;;;13.64;87.05;101832.97;5056495;28;19909;-36
2021/09/12 05:57:12;;;;;;;;;;;;;;;13.70;87.04;101833.13;5057335;28;19916;-36
2021/09/12 05:59:38;;;;;;;;;;;;;;;13.73;86.89;101833.50;5056623;28;19935;-36
2021/09/12 06:02:03;;;;;;;;;;;;;;;13.76;87.14;101829.50;5056959;28;20003;-36
2021/09/12 06:04:29;;;;;;;;;;;;;;;13.75;86.79;101830.56;5056291;28;20245;-36
2021/09/12 06:06:55;;;;;;;;;;;;;;;13.77;87.18;101833.91;5056516;28;20435;-36
2021/09/12 06:09:20;;;;;;;;;;;;;;;13.79;87.10;101832.59;5056414;28;19999;-36
2021/09/12 06:11:46;;;;;;;;;;;;;;;13.84;86.96;101840.06;5057024;28;20325;-36
2021/09/12 06:14:11;;;;;;;;;;;;;;;13.90;87.17;101828.25;5056151;28;20265;-36
2021/09/12 06:16:36;;;;;;;;;;;;;;;13.97;86.63;101830.91;5056653;28;19909;-36
2021/09/12 06:19:02;;;;;;;;;;;;;;;14.02;86.55;101831.88;5056510;28;19909;-36
2021/09/12 06:21:27;;;;;;;;;;;;;;;14.09;86.77;101837.22;5055645;28;19917;-36
2021/09/12 06:23:52;;;;;;;;;;;;;;;14.12;86.31;101843.03;5056156;28;19959;-36
2021/09/12 06:26:17;;;;;;;;;;;;;;;14.14;86.68;101849.06;5056816;28;19951;-36
2021/09/12 06:28:43;;;;;;;;;;;;;;;14.14;86.38;101840.09;5056638;28;20263;-36
2021/09/12 06:31:08;;;;;;;;;;;;;;;14.15;86.45;101841.75;5056246;28;19916;-36
2021/09/12 06:33:33;;;;;;;;;;;;;;;14.14;86.61;101840.91;5055666;28;19909;-36
2021/09/12 06:35:58;;;;;;;;;;;;;;;14.15;86.37;101849.91;5056302;28;19916;-36
2021/09/12 06:38:24;;;;;;;;;;;;;;;14.16;86.50;101846.13;5055889;28;19931;-36
2021/09/12 06:40:49;;;;;;;;;;;;;;;14.18;86.37;101853.00;5056381;28;19915;-36
2021/09/12 06:43:14;;;;;;;;;;;;;;;14.22;86.49;101852.53;5055820;28;19909;-36
2021/09/12 06:45:39;;;;;;;;;;;;;;;14.22;85.85;101853.38;5055300;28;19913;-36
2021/09/12 06:48:05;;;;;;;;;;;;;;;14.24;85.96;101840.34;5055117;28;20470;-36
2021/09/12 06:50:30;;;;;;;;;;;;;;;14.30;86.05;101844.03;5055764;28;19998;-36
2021/09/12 06:52:55;;;;;;;;;;;;;;;14.35;86.31;101836.03;5056291;28;19919;-36
2021/09/12 06:55:20;;;;;;;;;;;;;;;14.39;86.00;101835.31;5056041;28;19915;-36
2021/09/12 06:57:46;;;;;;;;;;;;;;;14.41;86.45;101824.22;5055713;28;19908;-36
2021/09/12 07:00:11;;;;;;;;;;;;;;;14.44;86.29;101834.63;5055174;28;19951;-36
2021/09/12 07:02:37;;;;;;;;;;;;;;;14.47;86.40;101834.16;5055136;28;20421;-36
2021/09/12 07:05:03;;;;;;;;;;;;;;;14.52;86.01;101828.06;5055743;28;19935;-36
2021/09/12 07:07:28;;;;;;;;;;;;;;;14.55;86.14;101822.97;5055150;28;19960;-36
2021/09/12 07:09:54;;;;;;;;;;;;;;;14.58;86.03;101827.94;5055285;28;19947;-36
2021/09/12 07:12:19;;;;;;;;;;;;;;;14.60;86.15;101825.84;5054089;28;19920;-36
2021/09/12 07:14:44;;;;;;;;;;;;;;;14.65;85.81;101831.41;5054888;28;19916;-36
2021/09/12 07:17:10;;;;;;;;;;;;;;;14.72;86.21;101827.72;5055125;28;19963;-36
2021/09/12 07:19:35;;;;;;;;;;;;;;;14.75;85.82;101830.00;5055454;28;19916;-36
2021/09/12 07:22:00;;;;;;;;;;;;;;;14.79;85.59;101831.19;5055516;28;19915;-36
2021/09/12 07:24:25;;;;;;;;;;;;;;;14.84;85.76;101840.31;5054699;28;19913;-36
2021/09/12 07:26:51;;;;;;;;;;;;;;;14.92;85.99;101836.41;5054072;28;19916;-36
2021/09/12 07:29:16;;;;;;;;;;;;;;;14.96;85.90;101832.13;5054598;28;19908;-36
2021/09/12 07:31:41;;;;;;;;;;;;;;;15.03;85.91;101827.41;5055397;28;19913;-36
2021/09/12 07:34:06;;;;;;;;;;;;;;;15.09;85.88;101821.03;5055075;28;20042;-36
2021/09/12 07:36:32;;;;;;;;;;;;;;;15.16;85.79;101819.00;5055033;28;19908;-36
2021/09/12 07:38:57;;;;;;;;;;;;;;;15.23;85.74;101818.88;5054710;28;19915;-36
2021/09/12 07:41:22;;;;;;;;;;;;;;;15.25;85.57;101822.19;5054632;28;19909;-36
2021/09/12 07:43:48;;;;;;;;;;;;;;;15.23;85.13;101827.06;5054603;28;19909;-36
2021/09/12 07:46:13;;;;;;;;;;;;;;;15.24;85.55;101830.59;5053164;28;19942;-36
2021/09/12 07:48:38;;;;;;;;;;;;;;;15.25;85.47;101821.38;5054486;28;19916;-36
2021/09/12 07:51:05;;;;;;;;;;;;;;;15.27;85.28;101824.66;5054496;28;19962;-36
2021/09/12 07:53:31;;;;;;;;;;;;;;;15.31;85.77;101829.41;5054274;28;19909;-36
2021/09/12 07:55:56;;;;;;;;;;;;;;;15.36;85.54;101825.97;5055248;28;20253;-36
2021/09/12 07:58:21;;;;;;;;;;;;;;;15.40;85.42;101825.25;5054432;28;19954;-36
2021/09/12 08:00:46;;;;;;;;;;;;;;;15.44;85.36;101825.59;5055046;28;19948;-36
2021/09/12 08:03:11;;;;;;;;;;;;;;;15.52;85.82;101830.69;5054531;28;19998;-36
2021/09/12 08:05:37;;;;;;;;;;;;;;;15.62;85.33;101841.00;5054135;28;20324;-36
2021/09/12 08:08:02;;;;;;;;;;;;;;;15.70;85.33;101827.00;5054900;28;19908;-36
2021/09/12 08:10:27;;;;;;;;;;;;;;;15.81;85.66;101833.47;5054053;28;20356;-36
2021/09/12 08:12:52;;;;;;;;;;;;;;;15.88;85.17;101834.19;5054205;28;19908;-36
2021/09/12 08:15:18;;;;;;;;;;;;;;;15.96;84.96;101842.00;5053676;28;19975;-36
2021/09/12 08:17:43;;;;;;;;;;;;;;;16.02;84.69;101841.00;5054000;28;19909;-36
2021/09/12 08:20:08;;;;;;;;;;;;;;;16.09;84.60;101851.78;5054323;28;19908;-36
2021/09/12 08:22:34;;;;;;;;;;;;;;;16.14;84.44;101852.69;5053892;28;20323;-36
2021/09/12 08:24:59;;;;;;;;;;;;;;;16.18;84.87;101862.06;5053868;28;20202;-36
2021/09/12 08:27:24;;;;;;;;;;;;;;;16.26;84.73;101862.75;5053956;28;19938;-36
2021/09/12 08:29:49;;;;;;;;;;;;;;;16.30;84.86;101863.91;5053771;28;19934;-36
2021/09/12 08:32:15;;;;;;;;;;;;;;;16.30;84.11;101863.91;5054055;28;19920;-36
2021/09/12 08:34:40;;;;;;;;;;;;;;;16.32;84.24;101869.94;5053611;28;19908;-36
2021/09/12 08:37:05;;;;;;;;;;;;;;;16.37;84.01;101859.13;5053686;28;19966;-36
2021/09/12 08:39:30;;;;;;;;;;;;;;;16.47;84.47;101871.06;5053273;28;19999;-36
2021/09/12 08:41:56;;;;;;;;;;;;;;;16.57;84.35;101859.50;5053803;28;19928;-36
2021/09/12 08:44:21;;;;;;;;;;;;;;;16.70;84.56;101861.09;5053808;28;19915;-36
2021/09/12 08:46:47;;;;;;;;;;;;;;;16.85;84.09;101866.00;5054138;28;19912;-36
2021/09/12 08:49:13;;;;;;;;;;;;;;;16.94;84.19;101862.63;5053465;28;20334;-36
2021/09/12 08:51:38;;;;;;;;;;;;;;;17.04;83.23;101861.13;5053736;28;19916;-36
2021/09/12 08:54:03;;;;;;;;;;;;;;;17.10;82.92;101857.38;5053455;28;19908;-36
2021/09/12 08:56:28;;;;;;;;;;;;;;;17.16;82.64;101864.56;5053802;28;19935;-36
2021/09/12 08:58:53;;;;;;;;;;;;;;;17.21;81.91;101867.38;5053353;28;19908;-36
2021/09/12 09:01:29;;;;;;;;;;;;;;;17.21;82.49;101876.41;5053364;28;20376;-36
2021/09/12 09:03:58;;;;;;;;;;;;;;;17.25;82.68;101872.09;5053437;28;19909;-36
2021/09/12 09:06:23;;;;;;;;;;;;;;;17.34;82.77;101869.78;5053898;28;19915;-36
2021/09/12 09:08:52;;;;;;;;;;;;;;;17.50;82.81;101870.81;5052711;28;19916;-36
2021/09/12 09:11:29;;;;;;;;;;;;;;;17.64;82.06;101861.16;5053522;28;19908;-36
2021/09/12 09:13:54;;;;;;;;;;;;;;;17.71;80.92;101867.28;5053276;28;19927;-36
2021/09/12 09:16:27;;;;;;;;;;;;;;;17.66;79.94;101866.38;5054094;28;20007;-36
2021/09/12 09:19:02;;;;;;;;;;;;;;;17.67;80.83;101863.41;5052998;28;19931;-36
2021/09/12 09:21:29;;;;;;;;;;;;;;;17.78;81.97;101861.66;5053272;28;19939;-36
2021/09/12 09:24:25;;;;;;;;;;;;;;;17.91;81.29;101871.38;5053050;28;19909;-36
2021/09/12 09:26:57;;;;;;;;;;;;;;;18.01;80.88;101875.06;5052873;28;19955;-36
2021/09/12 09:29:23;;;;;;;;;;;;;;;18.02;81.17;101860.31;5053207;28;19908;-36
2021/09/12 09:32:00;;;;;;;;;;;;;;;18.08;81.59;101866.66;5052279;28;19909;-36
2021/09/12 09:34:25;;;;;;;;;;;;;;;18.18;81.07;101871.41;5053559;28;19970;-36
2021/09/12 09:36:50;;;;;;;;;;;;;;;18.14;79.89;101862.88;5053121;28;19940;-36
2021/09/12 09:39:33;;;;;;;;;;;;;;;18.10;80.83;101869.94;5053133;28;20003;-36
2021/09/12 09:41:58;;;;;;;;;;;;;;;18.06;80.87;101870.75;5052805;28;19908;-36
2021/09/12 09:44:24;;;;;;;;;;;;;;;18.02;81.33;101875.91;5053393;28;19909;-36
2021/09/12 09:46:49;;;;;;;;;;;;;;;17.97;81.62;101873.94;5053515;28;19999;-36
2021/09/12 09:49:20;;;;;;;;;;;;;;;17.96;81.28;101868.72;5053043;28;19912;-36
2021/09/12 09:51:46;;;;;;;;;;;;;;;17.96;81.23;101876.94;5053870;28;19956;-36
2021/09/12 09:54:12;;;;;;;;;;;;;;;17.91;81.18;101880.44;5051725;28;19915;-36
2021/09/12 09:56:37;;;;;;;;;;;;;;;17.86;81.21;101883.09;5053572;28;20011;-36
2021/09/12 09:59:03;;;;;;;;;;;;;;;17.81;80.49;101883.00;5052984;28;19908;-36
2021/09/12 10:01:29;;;;;;;;;;;;;;;17.75;81.14;101882.13;5053497;28;20336;-36
2021/09/12 10:03:54;;;;;;;;;;;;;;;17.72;81.12;101874.41;5052849;28;19955;-36
2021/09/12 10:06:21;;;;;;;;;;;;;;;17.74;81.35;101875.00;5052540;28;20348;-36
2021/09/12 10:08:46;;;;;;;;;;;;;;;17.76;81.56;101869.25;5052608;28;19912;-36
2021/09/12 10:11:14;;;;;;;;;;;;;;;17.81;81.32;101860.28;5053398;28;19909;-36
2021/09/12 10:13:40;;;;;;;;;;;;;;;17.84;81.56;101863.34;5053740;28;20287;-36
2021/09/12 10:16:06;;;;;;;;;;;;;;;17.89;80.76;101865.34;5053063;28;20384;-36
2021/09/12 10:18:32;;;;;;;;;;;;;;;17.95;81.60;101864.31;5053058;28;19948;-36
2021/09/12 10:21:17;;;;;;;;;;;;;;;18.00;81.16;101867.91;5053014;28;19911;-36
2021/09/12 10:23:54;;;;;;;;;;;;;;;18.14;81.61;101865.63;5056313;28;19936;-36
2021/09/12 10:26:27;;;;;;;;;;;;;;;18.31;80.71;101865.53;5056740;28;19957;-36
2021/09/12 10:28:52;;;;;;;;;;;;;;;18.38;80.33;101857.13;5056458;28;19915;-36
2021/09/12 10:31:36;;;;;;;;;;;;;;;18.46;79.91;101856.66;5056924;28;20337;-36
2021/09/12 10:34:12;;;;;;;;;;;;;;;18.55;80.01;101863.31;5056236;28;19909;-35
2021/09/12 10:36:38;;;;;;;;;;;;;;;18.78;80.37;101857.50;5056717;28;19909;-36
2021/09/12 10:39:22;;;;;;;;;;;;;;;18.92;79.88;101851.59;5056389;28;19962;-36
2021/09/12 10:42:06;;;;;;;;;;;;;;;18.93;78.43;101855.97;5056183;28;19987;-36
2021/09/12 10:44:31;;;;;;;;;;;;;;;18.91;79.21;101858.16;5056298;28;19909;-35
2021/09/12 10:47:06;;;;;;;;;;;;;;;18.91;78.53;101859.00;5056697;28;20354;-35
2021/09/12 10:49:32;;;;;;;;;;;;;;;18.93;78.53;101858.72;5055881;28;20341;-36
2021/09/12 10:51:57;;;;;;;;;;;;;;;18.93;77.89;101850.50;5056047;28;19970;-36
2021/09/12 10:54:22;;;;;;;;;;;;;;;18.94;78.04;101857.66;5055915;28;19908;-35
2021/09/12 10:57:02;;;;;;;;;;;;;;;18.93;77.93;101858.72;5055816;28;19916;-36
2021/09/12 10:59:27;;;;;;;;;;;;;;;18.93;76.45;101864.19;5056142;28;20268;-36
2021/09/12 11:01:55;;;;;;;;;;;;;;;18.96;78.13;101859.03;5055759;28;19909;-36
2021/09/12 11:04:27;;;;;;;;;;;;;;;19.06;78.91;101861.03;5055533;28;19912;-35
2021/09/12 11:06:57;;;;;;;;;;;;;;;19.18;78.45;101860.81;5056194;28;19908;-36
2021/09/12 11:09:23;;;;;;;;;;;;;;;19.23;75.83;101852.66;5056017;28;20419;-36
2021/09/12 11:11:49;;;;;;;;;;;;;;;19.29;77.78;101855.16;5055887;28;19951;-36
2021/09/12 11:14:16;;;;;;;;;;;;;;;19.40;77.88;101858.78;5055776;28;19909;-36
2021/09/12 11:16:41;;;;;;;;;;;;;;;19.56;77.75;101855.00;5055576;28;19955;-36
2021/09/12 11:19:06;;;;;;;;;;;;;;;19.72;75.08;101858.72;5054271;28;20311;-36
2021/09/12 11:21:32;;;;;;;;;;;;;;;19.86;74.26;101856.25;5056284;28;20306;-36
2021/09/12 11:23:57;;;;;;;;;;;;;;;19.79;74.92;101855.72;5055455;28;19909;-36
2021/09/12 11:26:22;;;;;;;;;;;;;;;19.66;74.11;101859.75;5055304;28;20410;-36
2021/09/12 11:28:58;;;;;;;;;;;;;;;19.58;75.53;101852.03;5055841;28;19916;-37
2021/09/12 11:31:30;;;;;;;;;;;;;;;19.53;73.73;101849.25;5056037;28;20003;-37
2021/09/12 11:33:55;;;;;;;;;;;;;;;19.52;76.17;101848.44;5054794;28;19919;-37
2021/09/12 11:36:22;;;;;;;;;;;;;;;19.59;75.95;101847.34;5054416;28;19909;-37
2021/09/12 11:38:55;;;;;;;;;;;;;;;19.70;75.19;101849.06;5055370;28;19913;-37
2021/09/12 11:41:21;;;;;;;;;;;;;;;19.75;76.20;101857.34;5055423;28;19913;-37
2021/09/12 11:43:53;;;;;;;;;;;;;;;19.84;74.60;101857.66;5055064;28;20434;-37
2021/09/12 11:46:18;;;;;;;;;;;;;;;19.93;75.33;101854.13;5055441;28;19919;-37
2021/09/12 11:48:51;;;;;;;;;;;;;;;19.98;72.38;101851.38;5054960;28;19909;-37
2021/09/12 11:51:22;;;;;;;;;;;;;;;19.95;74.52;101851.91;5054658;28;19908;-37
2021/09/12 11:53:47;;;;;;;;;;;;;;;19.92;75.33;101852.47;5054932;28;19948;-37
2021/09/12 11:56:13;;;;;;;;;;;;;;;19.90;75.39;101849.16;5070281;28;19959;-37
2021/09/12 11:58:38;;;;;;;;;;;;;;;19.88;74.51;101842.28;5055016;28;19908;-37
2021/09/12 12:01:04;;;;;;;;;;;;;;;19.89;75.21;101843.94;5054777;28;19908;-37
2021/09/12 12:03:29;;;;;;;;;;;;;;;20.00;75.36;101832.72;5054688;28;19912;-37
2021/09/12 12:05:56;;;;;;;;;;;;;;;20.19;74.35;101832.22;5055101;28;20327;-37
2021/09/12 12:08:21;;;;;;;;;;;;;;;20.35;74.06;101831.16;5054223;28;19996;-37
2021/09/12 12:10:46;;;;;;;;;;;;;;;20.45;74.37;101830.34;5054810;28;20322;-37
2021/09/12 12:13:11;;;;;;;;;;;;;;;20.53;71.28;101827.88;5054427;28;19916;-37
2021/09/12 12:15:39;;;;;;;;;;;;;;;20.50;72.09;101830.38;5054467;28;19962;-37
2021/09/12 12:18:14;;;;;;;;;;;;;;;20.57;73.15;101833.66;5054668;28;20031;-37
2021/09/12 12:20:40;;;;;;;;;;;;;;;20.68;73.56;101838.06;5054311;28;19948;-37
2021/09/12 12:23:12;;;;;;;;;;;;;;;20.77;73.33;101830.09;5054012;28;20364;-37
2021/09/12 12:25:37;;;;;;;;;;;;;;;20.97;73.50;101830.06;5053930;28;19909;-37
2021/09/12 12:28:12;;;;;;;;;;;;;;;21.11;72.50;101838.59;5053098;28;20258;-37
2021/09/12 12:30:37;;;;;;;;;;;;;;;21.17;72.32;101828.38;5054416;28;19947;-37